Time;durP1;ratioP1;P1;durP2;ratioP2;P2;SDS_P1;SDS_P2;PMS_P1;PMS_P2;Temp;Humidity;BMP_temperature;BMP_pressure;BME280_temperature;BME280_humidity;BME280_pressure;Samples;Min_cycle;Max_cycle;Signal;HPM_P1;HPM_P2
2022/01/10 00:00:30;;;;;;;10.48;7.60;;;2.90;99.90;;;;;;5056500;28;20049;-79
2022/01/10 00:02:58;;;;;;;12.23;8.10;;;2.90;99.90;;;;;;5053725;28;20382;-80
2022/01/10 00:05:25;;;;;;;12.20;7.15;;;2.90;99.90;;;;;;5055666;28;20021;-80
2022/01/10 00:07:51;;;;;;;9.73;7.45;;;2.90;99.90;;;;;;5053955;28;20036;-81
2022/01/10 00:10:18;;;;;;;10.07;7.15;;;2.90;99.90;;;;;;5055525;28;20509;-80
2022/01/10 00:12:45;;;;;;;10.85;8.65;;;2.90;99.90;;;;;;5054330;28;20039;-80
2022/01/10 00:15:15;;;;;;;14.25;10.07;;;2.90;99.90;;;;;;5055486;28;20474;-80
2022/01/10 00:17:43;;;;;;;12.88;9.68;;;2.90;99.90;;;;;;5056102;28;20029;-80
2022/01/10 00:20:13;;;;;;;16.73;9.20;;;2.90;99.90;;;;;;5055678;28;20051;-79
2022/01/10 00:22:40;;;;;;;18.27;9.68;;;2.90;99.90;;;;;;5056782;28;20044;-80
2022/01/10 00:25:07;;;;;;;23.15;19.92;;;2.80;99.90;;;;;;5055674;28;20025;-80
2022/01/10 00:27:33;;;;;;;11.20;9.52;;;2.80;99.90;;;;;;5053757;28;20463;-79
2022/01/10 00:29:59;;;;;;;24.77;17.23;;;2.90;99.90;;;;;;5056168;28;20053;-78
2022/01/10 00:32:26;;;;;;;229.95;161.25;;;2.80;99.90;;;;;;5055931;28;20037;-78
2022/01/10 00:34:52;;;;;;;53.20;34.42;;;2.80;99.90;;;;;;5054681;28;20405;-79
2022/01/10 00:37:18;;;;;;;39.10;28.70;;;2.80;99.90;;;;;;5054473;28;20037;-79
2022/01/10 00:39:48;;;;;;;50.70;40.75;;;2.80;99.90;;;;;;5058992;28;20037;-78
2022/01/10 00:42:15;;;;;;;13.73;10.10;;;2.80;99.90;;;;;;5054761;28;20462;-79
2022/01/10 00:44:49;;;;;;;78.72;60.58;;;2.80;99.90;;;;;;5058462;28;20044;-79
2022/01/10 00:47:16;;;;;;;25.25;19.95;;;2.80;99.90;;;;;;5056841;28;20029;-79
2022/01/10 00:49:43;;;;;;;16.98;14.25;;;2.80;99.90;;;;;;5054403;28;20033;-79
2022/01/10 00:52:09;;;;;;;17.58;10.25;;;2.70;99.90;;;;;;5052418;28;20475;-79
2022/01/10 00:54:36;;;;;;;21.83;13.13;;;2.80;99.90;;;;;;5053966;28;20143;-79
2022/01/10 00:57:02;;;;;;;20.55;13.57;;;2.70;99.90;;;;;;5053361;28;20366;-80
2022/01/10 00:59:29;;;;;;;77.53;63.03;;;2.70;99.90;;;;;;5053931;28;20036;-79
2022/01/10 01:01:56;;;;;;;75.78;65.95;;;2.70;99.90;;;;;;5051805;28;20044;-79
2022/01/10 01:04:22;;;;;;;15.98;12.38;;;2.70;99.90;;;;;;5052460;28;20041;-78
2022/01/10 01:06:49;;;;;;;39.17;33.22;;;2.70;99.90;;;;;;5051829;28;20056;-79
2022/01/10 01:09:18;;;;;;;14.23;11.00;;;2.70;99.90;;;;;;5053569;28;20033;-79
2022/01/10 01:14:55;;;;;;;12.38;10.02;;;2.70;99.90;;;;;;5054330;28;20033;-80
2022/01/10 01:17:25;;;;;;;20.98;13.80;;;2.70;99.90;;;;;;5052265;28;20509;-80
2022/01/10 01:20:07;;;;;;;14.73;11.82;;;2.70;99.90;;;;;;5052773;28;20052;-80
2022/01/10 01:25:18;;;;;;;17.50;13.35;;;2.70;99.90;;;;;;5054116;28;20032;-80
2022/01/10 01:27:45;;;;;;;13.23;11.73;;;2.70;99.90;;;;;;5052607;28;20049;-79
2022/01/10 01:30:11;;;;;;;19.88;13.68;;;2.70;99.90;;;;;;5036079;28;20041;-80
2022/01/10 01:32:38;;;;;;;15.55;12.00;;;2.70;99.90;;;;;;5053124;28;20048;-80
2022/01/10 01:35:07;;;;;;;23.30;13.35;;;2.70;99.90;;;;;;5053699;28;20052;-78
2022/01/10 01:37:37;;;;;;;13.88;11.27;;;2.70;99.90;;;;;;5054046;28;20509;-78
2022/01/10 01:40:06;;;;;;;14.43;12.57;;;2.70;99.90;;;;;;5052541;28;20056;-79
2022/01/10 01:42:39;;;;;;;13.90;11.05;;;2.70;99.90;;;;;;5053557;28;20378;-78
2022/01/10 01:45:10;;;;;;;14.38;10.15;;;2.60;99.90;;;;;;5053041;28;20048;-79
2022/01/10 01:47:37;;;;;;;16.85;12.63;;;2.60;99.90;;;;;;5055701;28;20048;-79
2022/01/10 01:50:08;;;;;;;12.73;9.50;;;2.60;99.90;;;;;;5053045;28;20366;-80
2022/01/10 01:52:34;;;;;;;13.32;10.88;;;2.60;99.90;;;;;;5053229;28;20048;-79
2022/01/10 01:55:03;;;;;;;13.57;10.93;;;2.60;99.90;;;;;;5053505;28;20033;-79
2022/01/10 01:57:31;;;;;;;13.05;11.25;;;2.60;99.90;;;;;;5052803;28;20049;-79
2022/01/10 01:59:57;;;;;;;24.55;12.25;;;2.60;99.90;;;;;;5054228;28;20029;-78
2022/01/10 02:02:24;;;;;;;25.20;11.98;;;2.60;99.90;;;;;;5052936;28;20516;-79
2022/01/10 02:04:50;;;;;;;14.82;10.98;;;2.60;99.90;;;;;;5052974;28;20048;-79
2022/01/10 02:07:17;;;;;;;15.70;10.35;;;2.60;99.90;;;;;;5055105;28;20045;-78
2022/01/10 02:09:44;;;;;;;12.77;9.23;;;2.60;99.90;;;;;;5052145;28;20509;-79
2022/01/10 02:12:11;;;;;;;13.75;9.75;;;2.50;99.90;;;;;;5050419;28;20048;-79
2022/01/10 02:14:41;;;;;;;10.55;9.60;;;2.50;99.90;;;;;;5051042;28;20045;-79
2022/01/10 02:17:09;;;;;;;11.77;10.43;;;2.50;99.90;;;;;;5050276;28;20052;-79
2022/01/10 02:19:40;;;;;;;14.27;9.65;;;2.50;99.90;;;;;;5050721;28;20282;-78
2022/01/10 02:22:07;;;;;;;11.15;9.57;;;2.50;99.90;;;;;;5049779;28;20048;-78
2022/01/10 02:24:48;;;;;;;10.30;9.27;;;2.50;99.90;;;;;;5050556;28;20055;-78
2022/01/10 02:27:14;;;;;;;17.38;10.95;;;2.40;99.90;;;;;;5049551;28;20049;-79
2022/01/10 02:29:41;;;;;;;13.77;11.77;;;2.40;99.90;;;;;;5050739;28;20056;-78
2022/01/10 02:32:08;;;;;;;14.73;11.98;;;2.40;99.90;;;;;;5051037;28;20048;-79
2022/01/10 02:34:34;;;;;;;13.85;9.90;;;2.30;99.90;;;;;;5051918;28;20359;-79
2022/01/10 02:37:00;;;;;;;10.35;9.07;;;2.30;99.90;;;;;;5054401;28;20041;-79
2022/01/10 02:39:30;;;;;;;15.63;9.70;;;2.30;99.90;;;;;;5054235;28;20044;-78
2022/01/10 02:41:57;;;;;;;11.13;9.20;;;2.30;99.90;;;;;;5053628;28;20041;-81
2022/01/10 02:44:24;;;;;;;10.65;8.93;;;2.30;99.90;;;;;;5055228;28;20398;-79
2022/01/10 02:46:50;;;;;;;12.70;11.05;;;2.30;99.90;;;;;;5055126;28;20044;-78
2022/01/10 02:49:29;;;;;;;9.88;8.93;;;2.30;99.90;;;;;;5053868;28;20167;-78
2022/01/10 02:51:57;;;;;;;11.38;9.98;;;2.30;99.90;;;;;;5055523;28;20056;-78
2022/01/10 02:54:26;;;;;;;12.43;10.52;;;2.20;99.90;;;;;;5053527;28;20041;-78
2022/01/10 02:56:56;;;;;;;12.93;9.55;;;2.20;99.90;;;;;;5054206;28;20037;-79
2022/01/10 02:59:24;;;;;;;12.05;9.55;;;2.30;99.90;;;;;;5053282;28;20044;-79
2022/01/10 03:01:51;;;;;;;12.75;9.88;;;2.20;99.90;;;;;;5053476;28;20049;-79
2022/01/10 03:04:19;;;;;;;11.27;10.27;;;2.20;99.90;;;;;;5052777;28;20045;-79
2022/01/10 03:06:48;;;;;;;9.45;8.35;;;2.20;99.90;;;;;;5053554;28;20045;-81
2022/01/10 03:09:15;;;;;;;14.35;11.60;;;2.20;99.90;;;;;;5052581;28;20470;-80
2022/01/10 03:11:43;;;;;;;12.32;9.93;;;2.20;99.90;;;;;;5053338;28;20045;-78
2022/01/10 03:14:12;;;;;;;14.60;11.18;;;2.10;99.90;;;;;;5053940;28;20330;-80
2022/01/10 03:16:38;;;;;;;13.73;11.73;;;2.20;99.90;;;;;;5053535;28;20040;-80
2022/01/10 03:19:04;;;;;;;17.67;10.93;;;2.20;99.90;;;;;;5053881;28;20036;-79
2022/01/10 03:21:31;;;;;;;13.52;11.90;;;2.20;99.90;;;;;;5054217;28;20053;-78
2022/01/10 03:23:59;;;;;;;11.70;10.23;;;2.20;99.90;;;;;;5053022;28;20085;-78
2022/01/10 03:26:27;;;;;;;12.30;10.38;;;2.20;99.90;;;;;;5052560;28;20048;-78
2022/01/10 03:28:54;;;;;;;12.68;10.30;;;2.20;99.90;;;;;;5052109;28;20049;-78
2022/01/10 03:31:21;;;;;;;12.85;10.00;;;2.20;99.90;;;;;;5053605;28;20037;-78
2022/01/10 03:33:47;;;;;;;11.88;10.38;;;2.20;99.90;;;;;;5053228;28;20045;-78
2022/01/10 03:36:14;;;;;;;10.95;9.25;;;2.20;99.90;;;;;;5053800;28;20041;-78
2022/01/10 03:38:41;;;;;;;10.18;8.82;;;2.20;99.90;;;;;;5052762;28;20037;-79
2022/01/10 03:41:09;;;;;;;13.38;10.23;;;2.20;99.90;;;;;;5052328;28;20051;-79
2022/01/10 03:43:35;;;;;;;16.27;10.82;;;2.20;99.90;;;;;;5053014;28;20041;-79
2022/01/10 03:46:03;;;;;;;11.77;9.73;;;2.20;99.90;;;;;;5052233;28;20500;-79
2022/01/10 03:48:29;;;;;;;10.20;9.13;;;2.20;99.90;;;;;;5052842;28;20064;-78
2022/01/10 03:50:57;;;;;;;12.13;10.82;;;2.20;99.90;;;;;;5052771;28;20056;-79
2022/01/10 03:53:24;;;;;;;10.40;9.50;;;2.20;99.90;;;;;;5051837;28;20037;-79
2022/01/10 03:55:51;;;;;;;10.98;9.88;;;2.20;99.90;;;;;;5052601;28;20048;-79
2022/01/10 03:58:17;;;;;;;13.70;10.32;;;2.20;99.90;;;;;;5051414;28;20056;-79
2022/01/10 04:00:44;;;;;;;13.13;9.98;;;2.20;99.90;;;;;;5052710;28;20045;-78
2022/01/10 04:03:10;;;;;;;13.45;10.73;;;2.20;99.90;;;;;;5053527;28;20041;-79
2022/01/10 04:05:52;;;;;;;12.63;11.32;;;2.20;99.90;;;;;;5052215;28;20045;-79
2022/01/10 04:08:18;;;;;;;18.65;11.10;;;2.10;99.90;;;;;;5051791;28;20049;-78
2022/01/10 04:10:44;;;;;;;10.93;9.90;;;2.20;99.90;;;;;;5053411;28;20037;-79
2022/01/10 04:13:12;;;;;;;10.73;9.73;;;2.10;99.90;;;;;;5052882;28;20045;-79
2022/01/10 04:15:39;;;;;;;13.25;11.68;;;2.10;99.90;;;;;;5057519;28;20048;-78
2022/01/10 04:18:07;;;;;;;17.80;11.80;;;2.10;99.90;;;;;;5056018;28;20036;-77
2022/01/10 04:20:34;;;;;;;17.63;12.93;;;2.10;99.90;;;;;;5055637;28;20041;-79
2022/01/10 04:23:00;;;;;;;20.58;15.35;;;2.10;99.90;;;;;;5053240;28;20052;-78
2022/01/10 04:25:26;;;;;;;19.48;17.58;;;2.10;99.90;;;;;;5052757;28;20036;-78
2022/01/10 04:27:53;;;;;;;20.38;18.20;;;2.10;99.90;;;;;;5052231;28;20059;-78
2022/01/10 04:30:27;;;;;;;25.23;17.02;;;2.10;99.90;;;;;;5051305;28;20049;-79
2022/01/10 04:32:54;;;;;;;21.27;18.05;;;2.00;99.90;;;;;;5052304;28;20041;-79
2022/01/10 04:35:20;;;;;;;17.75;15.90;;;2.10;99.90;;;;;;5051211;28;20048;-79
2022/01/10 04:37:46;;;;;;;21.27;15.57;;;2.00;99.90;;;;;;5051815;28;20482;-79
2022/01/10 04:40:13;;;;;;;18.25;15.85;;;2.00;99.90;;;;;;5051616;28;20052;-79
2022/01/10 04:42:39;;;;;;;18.30;15.73;;;2.00;99.90;;;;;;5052139;28;20398;-79
2022/01/10 04:45:06;;;;;;;14.77;13.23;;;2.00;99.90;;;;;;5051301;28;20041;-79
2022/01/10 04:47:32;;;;;;;12.30;10.98;;;2.00;99.90;;;;;;5053257;28;20029;-79
2022/01/10 04:52:45;;;;;;;15.70;10.68;;;2.00;99.90;;;;;;5051478;28;20041;-78
2022/01/10 04:55:13;;;;;;;11.85;10.65;;;1.90;99.90;;;;;;5050442;28;20481;-78
2022/01/10 04:57:40;;;;;;;17.88;10.82;;;1.90;99.90;;;;;;5050650;28;20044;-78
2022/01/10 05:00:10;;;;;;;16.70;12.40;;;1.90;99.90;;;;;;5051035;28;20406;-79
2022/01/10 05:02:37;;;;;;;16.17;14.48;;;1.90;99.90;;;;;;5051162;28;20052;-78
2022/01/10 05:05:04;;;;;;;13.45;12.13;;;1.80;99.90;;;;;;5051512;28;20052;-79
2022/01/10 05:07:31;;;;;;;20.45;13.98;;;1.80;99.90;;;;;;5051290;28;20052;-79
2022/01/10 05:09:58;;;;;;;13.18;11.80;;;1.80;99.90;;;;;;5051035;28;20036;-79
2022/01/10 05:12:27;;;;;;;27.05;13.23;;;1.70;99.90;;;;;;5050637;28;20072;-79
2022/01/10 05:14:53;;;;;;;16.25;13.00;;;1.70;99.90;;;;;;5034525;28;20048;-79
2022/01/10 05:17:21;;;;;;;18.45;11.95;;;1.70;99.90;;;;;;5052620;28;20044;-79
2022/01/10 05:19:48;;;;;;;16.05;11.73;;;1.70;99.90;;;;;;5051939;28;20422;-78
2022/01/10 05:22:14;;;;;;;15.15;13.57;;;1.60;99.90;;;;;;5051646;28;20049;-79
2022/01/10 05:24:40;;;;;;;15.10;12.65;;;1.60;99.90;;;;;;5051334;28;20029;-79
2022/01/10 05:27:07;;;;;;;17.05;12.10;;;1.60;99.90;;;;;;5051564;28;20395;-80
2022/01/10 05:29:33;;;;;;;17.67;13.52;;;1.60;99.90;;;;;;5051621;28;20045;-78
2022/01/10 05:32:00;;;;;;;21.95;12.75;;;1.50;99.90;;;;;;5051492;28;20049;-79
2022/01/10 05:34:52;;;;;;;16.95;13.45;;;1.60;99.90;;;;;;5050764;28;20049;-78
2022/01/10 05:37:18;;;;;;;18.67;14.05;;;1.60;99.90;;;;;;5052056;28;20377;-78
2022/01/10 05:39:44;;;;;;;16.95;14.95;;;1.60;99.90;;;;;;5051306;28;20041;-79
2022/01/10 05:42:11;;;;;;;17.77;13.93;;;1.60;99.90;;;;;;5050917;28;20470;-79
2022/01/10 05:44:37;;;;;;;16.38;13.23;;;1.60;99.90;;;;;;5051884;28;20095;-79
2022/01/10 05:47:04;;;;;;;20.35;14.43;;;1.60;99.90;;;;;;5051053;28;20493;-79
2022/01/10 05:49:34;;;;;;;17.80;14.63;;;1.50;99.90;;;;;;5051533;28;20425;-79
2022/01/10 05:52:02;;;;;;;14.27;11.20;;;1.50;99.90;;;;;;5050903;28;20045;-79
2022/01/10 05:54:35;;;;;;;22.27;12.70;;;1.50;99.90;;;;;;5050939;28;20044;-79
2022/01/10 05:57:03;;;;;;;17.83;13.38;;;1.50;99.90;;;;;;5051251;28;20045;-79
2022/01/10 05:59:31;;;;;;;18.17;13.45;;;1.50;99.90;;;;;;5050302;28;20052;-78
2022/01/10 06:02:02;;;;;;;18.95;14.55;;;1.50;99.90;;;;;;5050989;28;20041;-78
2022/01/10 06:04:30;;;;;;;20.63;13.77;;;1.50;99.90;;;;;;5050396;28;20041;-79
2022/01/10 06:07:01;;;;;;;17.77;15.02;;;1.40;99.90;;;;;;5051353;28;20041;-79
2022/01/10 06:09:27;;;;;;;21.98;14.73;;;1.40;99.90;;;;;;5050204;28;20052;-78
2022/01/10 06:11:55;;;;;;;14.98;13.48;;;1.40;99.90;;;;;;5053982;28;20045;-78
2022/01/10 06:14:21;;;;;;;19.05;16.10;;;1.40;99.90;;;;;;5054166;28;20053;-79
2022/01/10 06:16:47;;;;;;;24.17;21.10;;;1.40;99.90;;;;;;5054966;28;20044;-79
2022/01/10 06:19:14;;;;;;;35.58;28.80;;;1.30;99.90;;;;;;5053952;28;20073;-79
2022/01/10 06:21:40;;;;;;;19.17;17.02;;;1.30;99.90;;;;;;5055671;28;20485;-79
2022/01/10 06:24:06;;;;;;;17.58;15.70;;;1.40;99.90;;;;;;5054671;28;20036;-79
2022/01/10 06:26:33;;;;;;;19.60;16.15;;;1.30;99.90;;;;;;5053994;28;20041;-79
2022/01/10 06:29:00;;;;;;;17.30;13.55;;;1.30;99.90;;;;;;5055695;28;20462;-78
2022/01/10 06:31:26;;;;;;;21.48;14.25;;;1.20;99.90;;;;;;5053891;28;20055;-79
2022/01/10 06:34:06;;;;;;;19.27;15.50;;;1.30;99.90;;;;;;5054956;28;20049;-79
2022/01/10 06:36:33;;;;;;;19.30;16.73;;;1.30;99.90;;;;;;5053705;28;20045;-79
2022/01/10 06:39:00;;;;;;;22.48;17.10;;;1.30;99.90;;;;;;5054209;28;20041;-79
2022/01/10 06:41:26;;;;;;;26.08;17.00;;;1.30;99.90;;;;;;5055477;28;20041;-79
2022/01/10 06:43:52;;;;;;;17.05;15.25;;;1.30;99.90;;;;;;5054239;28;20037;-77
2022/01/10 06:46:20;;;;;;;19.05;15.77;;;1.20;99.90;;;;;;5053706;28;20040;-79
2022/01/10 06:48:47;;;;;;;21.23;15.45;;;1.20;99.90;;;;;;5053798;28;20410;-79
2022/01/10 06:51:13;;;;;;;21.27;16.17;;;1.20;99.90;;;;;;5054608;28;20401;-79
2022/01/10 06:53:43;;;;;;;21.98;16.35;;;1.10;99.90;;;;;;5053982;28;20462;-79
2022/01/10 06:56:09;;;;;;;21.50;16.38;;;1.20;99.90;;;;;;5054222;28;20405;-78
2022/01/10 06:58:38;;;;;;;18.20;16.38;;;1.20;99.90;;;;;;5054249;28;20045;-79
2022/01/10 07:01:08;;;;;;;20.70;17.83;;;1.20;99.90;;;;;;5054028;28;20041;-78
2022/01/10 07:03:35;;;;;;;20.05;17.42;;;1.20;99.90;;;;;;5053860;28;20366;-78
2022/01/10 07:06:13;;;;;;;17.67;16.08;;;1.30;99.90;;;;;;5053434;28;20044;-79
2022/01/10 07:08:39;;;;;;;22.33;17.08;;;1.30;99.90;;;;;;5054675;28;20040;-79
2022/01/10 07:11:05;;;;;;;24.92;17.55;;;1.30;99.90;;;;;;5053788;28;20375;-78
2022/01/10 07:13:32;;;;;;;19.70;16.98;;;1.30;99.90;;;;;;5054430;28;20343;-77
2022/01/10 07:16:02;;;;;;;19.80;16.85;;;1.20;99.90;;;;;;5053479;28;20041;-78
2022/01/10 07:18:28;;;;;;;20.33;18.15;;;1.20;99.90;;;;;;5053011;28;20397;-78
2022/01/10 07:20:57;;;;;;;17.95;16.38;;;1.20;99.90;;;;;;5053405;28;20040;-79
2022/01/10 07:23:24;;;;;;;17.60;15.63;;;1.20;99.90;;;;;;5052866;28;20107;-78
2022/01/10 07:25:50;;;;;;;22.77;15.68;;;1.20;99.90;;;;;;5054410;28;20033;-78
2022/01/10 07:28:17;;;;;;;18.55;16.75;;;1.20;99.90;;;;;;5054170;28;20497;-78
2022/01/10 07:30:43;;;;;;;18.70;16.80;;;1.20;99.90;;;;;;5054148;28;20035;-78
2022/01/10 07:33:09;;;;;;;26.58;15.57;;;1.20;99.90;;;;;;5054323;28;20036;-78
2022/01/10 07:35:35;;;;;;;18.73;16.00;;;1.20;99.90;;;;;;5053168;28;20033;-78
2022/01/10 07:38:02;;;;;;;22.98;15.90;;;1.20;99.90;;;;;;5054215;28;20033;-78
2022/01/10 07:40:28;;;;;;;18.55;15.82;;;1.20;99.90;;;;;;5053652;28;20025;-79
2022/01/10 07:42:54;;;;;;;17.67;15.82;;;1.20;99.90;;;;;;5054519;28;20378;-78
2022/01/10 07:45:32;;;;;;;18.95;16.38;;;1.10;99.90;;;;;;5037334;28;20036;-78
2022/01/10 07:47:59;;;;;;;19.00;16.40;;;1.10;99.90;;;;;;5054332;28;20025;-79
2022/01/10 07:50:25;;;;;;;18.88;16.33;;;1.10;99.90;;;;;;5053643;28;20036;-79
2022/01/10 07:52:51;;;;;;;23.45;20.00;;;1.10;99.90;;;;;;5054227;28;20048;-79
2022/01/10 07:55:17;;;;;;;21.00;18.80;;;1.00;99.90;;;;;;5054969;28;20029;-79
2022/01/10 07:57:45;;;;;;;22.50;20.17;;;1.00;99.90;;;;;;5056694;28;20430;-79
2022/01/10 08:00:12;;;;;;;30.00;20.88;;;1.00;99.90;;;;;;5055804;28;20040;-79
2022/01/10 08:02:39;;;;;;;20.95;18.83;;;1.00;99.90;;;;;;5054969;28;20045;-81
2022/01/10 08:05:07;;;;;;;24.48;19.15;;;1.00;99.90;;;;;;5054606;28;20049;-80
2022/01/10 08:07:34;;;;;;;20.55;15.10;;;1.00;99.90;;;;;;5052341;28;20052;-80
2022/01/10 08:10:03;;;;;;;17.85;16.10;;;1.00;99.90;;;;;;5054096;28;20033;-80
2022/01/10 08:12:29;;;;;;;23.55;21.00;;;1.00;99.90;;;;;;5052064;28;20051;-80
2022/01/10 08:14:55;;;;;;;20.50;18.63;;;1.00;99.90;;;;;;5052558;28;20426;-80
2022/01/10 08:17:22;;;;;;;23.08;20.10;;;1.00;99.90;;;;;;5053131;28;20037;-80
2022/01/10 08:19:49;;;;;;;25.35;21.60;;;1.10;99.90;;;;;;5053725;28;20033;-74
2022/01/10 08:22:16;;;;;;;21.27;18.83;;;1.20;99.90;;;;;;5053421;28;20040;-74
2022/01/10 08:24:42;;;;;;;21.05;17.23;;;1.20;99.90;;;;;;5052455;28;20028;-77
2022/01/10 08:27:08;;;;;;;19.88;17.40;;;1.30;99.90;;;;;;5053027;28;20025;-77
2022/01/10 08:29:34;;;;;;;18.05;16.33;;;1.30;99.90;;;;;;5052848;28;20036;-78
2022/01/10 08:32:01;;;;;;;17.00;14.90;;;1.40;99.90;;;;;;5053108;28;20044;-77
2022/01/10 08:34:27;;;;;;;18.38;16.50;;;1.40;99.90;;;;;;5052531;28;20033;-76
2022/01/10 08:36:56;;;;;;;20.00;16.63;;;1.50;99.90;;;;;;5055958;28;20025;-77
2022/01/10 08:39:22;;;;;;;20.85;16.48;;;1.60;99.90;;;;;;5058246;28;20029;-77
2022/01/10 08:41:49;;;;;;;22.98;15.52;;;1.70;99.90;;;;;;5055424;28;20044;-76
2022/01/10 08:44:17;;;;;;;18.70;15.93;;;1.80;99.90;;;;;;5053220;28;20032;-77
2022/01/10 08:46:45;;;;;;;17.35;15.40;;;1.80;99.90;;;;;;5036181;28;20045;-77
2022/01/10 08:49:12;;;;;;;17.85;14.55;;;2.00;99.90;;;;;;5053092;28;20484;-77
2022/01/10 08:51:40;;;;;;;15.90;14.02;;;2.10;99.90;;;;;;5052388;28;20037;-77
2022/01/10 08:54:07;;;;;;;17.63;15.82;;;2.20;99.90;;;;;;5053329;28;20045;-77
2022/01/10 08:56:33;;;;;;;22.38;17.50;;;2.30;99.90;;;;;;5052447;28;20032;-77
2022/01/10 08:59:00;;;;;;;28.92;15.70;;;2.50;99.90;;;;;;5052944;28;20572;-77
2022/01/10 09:01:27;;;;;;;17.08;15.18;;;2.50;99.90;;;;;;5052717;28;20037;-77
2022/01/10 09:03:53;;;;;;;21.38;15.73;;;2.70;99.90;;;;;;5052794;28;20036;-76
2022/01/10 09:06:20;;;;;;;22.55;15.15;;;2.80;99.90;;;;;;5052631;28;20346;-78
2022/01/10 09:08:49;;;;;;;27.58;18.63;;;2.90;99.90;;;;;;5052634;28;20036;-77
2022/01/10 09:11:15;;;;;;;20.88;16.08;;;3.00;99.90;;;;;;5052713;28;20044;-77
2022/01/10 09:13:42;;;;;;;21.10;13.27;;;3.00;99.90;;;;;;5052237;28;20040;-77
2022/01/10 09:16:09;;;;;;;16.50;14.88;;;3.20;99.90;;;;;;5052875;28;20025;-76
2022/01/10 09:18:35;;;;;;;22.25;15.15;;;3.30;99.90;;;;;;5052385;28;20374;-77
2022/01/10 09:21:02;;;;;;;15.85;14.35;;;3.50;99.90;;;;;;5052743;28;20028;-77
2022/01/10 09:23:28;;;;;;;15.30;13.55;;;3.60;99.90;;;;;;5052313;28;20041;-77
2022/01/10 09:25:54;;;;;;;17.90;15.48;;;3.70;99.90;;;;;;5052509;28;20358;-77
2022/01/10 09:28:20;;;;;;;16.25;12.88;;;3.70;99.90;;;;;;5052368;28;20135;-87
2022/01/10 09:30:47;;;;;;;14.40;12.45;;;3.80;99.90;;;;;;5052472;28;20033;-77
2022/01/10 09:33:14;;;;;;;15.82;13.20;;;3.80;99.90;;;;;;5052589;28;20040;-78
2022/01/10 09:35:42;;;;;;;18.50;11.55;;;3.90;99.90;;;;;;5052124;28;20646;-77
2022/01/10 09:38:10;;;;;;;16.38;11.13;;;3.90;99.90;;;;;;5052531;28;20044;-77
2022/01/10 09:40:36;;;;;;;14.25;11.07;;;4.00;99.90;;;;;;5052166;28;20038;-77
2022/01/10 09:43:03;;;;;;;18.52;11.32;;;4.00;99.90;;;;;;5052729;28;20037;-77
2022/01/10 09:45:31;;;;;;;20.95;11.45;;;4.10;99.90;;;;;;5053912;28;20029;-77
2022/01/10 09:47:57;;;;;;;17.63;10.93;;;4.20;99.90;;;;;;5056455;28;20029;-77
2022/01/10 09:50:23;;;;;;;16.38;12.55;;;4.30;99.90;;;;;;5055677;28;20029;-78
2022/01/10 09:52:50;;;;;;;14.88;10.77;;;4.20;99.90;;;;;;5056382;28;20029;-77
2022/01/10 09:55:17;;;;;;;11.57;9.95;;;4.20;99.90;;;;;;5056571;28;20033;-76
2022/01/10 09:57:43;;;;;;;14.95;11.07;;;4.20;99.90;;;;;;5055671;28;20374;-77
2022/01/10 10:00:11;;;;;;;11.05;9.80;;;4.30;99.90;;;;;;5056235;28;20036;-76
2022/01/10 10:02:43;;;;;;;11.20;8.73;;;4.40;99.90;;;;;;5056342;28;20393;-76
2022/01/10 10:05:11;;;;;;;8.82;7.88;;;4.40;99.90;;;;;;5056769;28;20033;-76
2022/01/10 10:07:39;;;;;;;18.33;9.65;;;4.40;99.90;;;;;;5056512;28;20451;-76
2022/01/10 10:10:13;;;;;;;10.75;8.18;;;4.40;99.90;;;;;;5056416;28;20040;-76
2022/01/10 10:12:43;;;;;;;13.05;9.48;;;4.40;99.90;;;;;;5038672;28;20064;-77
2022/01/10 10:15:12;;;;;;;17.02;9.13;;;4.50;99.90;;;;;;5055984;28;20033;-76
2022/01/10 10:17:40;;;;;;;14.68;8.48;;;4.50;99.90;;;;;;5055427;28;20032;-76
2022/01/10 10:20:18;;;;;;;12.30;9.63;;;4.60;99.90;;;;;;5055891;28;20029;-77
2022/01/10 10:22:49;;;;;;;16.35;9.77;;;4.50;99.90;;;;;;5055459;28;20385;-76
2022/01/10 10:25:16;;;;;;;15.95;9.13;;;4.40;99.90;;;;;;5055985;28;20036;-76
2022/01/10 10:27:45;;;;;;;18.08;11.13;;;4.20;99.90;;;;;;5055101;28;20120;-76
2022/01/10 10:30:32;;;;;;;15.85;11.10;;;4.30;99.90;;;;;;5055556;28;20036;-76
2022/01/10 10:33:13;;;;;;;22.88;11.40;;;4.60;99.90;;;;;;5055571;28;20459;-76
2022/01/10 10:35:39;;;;;;;14.23;10.10;;;4.70;99.90;;;;;;5055487;28;20471;-76
2022/01/10 10:38:06;;;;;;;14.93;11.50;;;4.80;99.90;;;;;;5055800;28;20029;-76
2022/01/10 10:40:39;;;;;;;14.77;12.05;;;4.80;99.90;;;;;;5054769;28;20044;-77
2022/01/10 10:43:08;;;;;;;17.95;12.43;;;5.00;99.90;;;;;;5054344;28;20037;-76
2022/01/10 10:45:36;;;;;;;13.40;11.70;;;5.00;99.90;;;;;;5054432;28;20389;-77
2022/01/10 10:48:08;;;;;;;12.32;10.95;;;5.00;99.90;;;;;;5055051;28;20025;-76
2022/01/10 10:50:43;;;;;;;16.25;12.30;;;5.10;99.90;;;;;;5053506;28;20033;-77
2022/01/10 10:53:13;;;;;;;15.10;11.52;;;5.20;99.90;;;;;;5055380;28;20041;-76
2022/01/10 10:55:44;;;;;;;11.82;8.15;;;5.30;99.90;;;;;;5053613;28;20037;-77
2022/01/10 10:58:11;;;;;;;14.45;9.00;;;5.30;99.90;;;;;;5055191;28;20036;-76
2022/01/10 11:00:38;;;;;;;8.57;7.10;;;5.30;99.90;;;;;;5054656;28;20025;-77
2022/01/10 11:03:05;;;;;;;13.70;9.10;;;5.30;99.80;;;;;;5054659;28;20071;-77
2022/01/10 11:05:33;;;;;;;16.80;9.88;;;5.30;99.50;;;;;;5053317;28;20037;-77
2022/01/10 11:08:00;;;;;;;11.07;8.55;;;5.50;99.00;;;;;;5055061;28;20055;-77
2022/01/10 11:10:27;;;;;;;8.18;7.38;;;5.60;98.90;;;;;;5053326;28;20405;-85
2022/01/10 11:12:56;;;;;;;15.57;8.05;;;5.60;97.80;;;;;;5054731;28;20037;-77
2022/01/10 11:15:24;;;;;;;15.05;8.55;;;5.60;97.30;;;;;;5054926;28;20041;-77
2022/01/10 11:17:53;;;;;;;12.27;8.40;;;5.60;97.30;;;;;;5054372;28;20044;-77
2022/01/10 11:20:23;;;;;;;9.40;8.00;;;5.80;96.30;;;;;;5054965;28;20477;-76
2022/01/10 11:22:51;;;;;;;16.42;7.95;;;5.80;95.80;;;;;;5054379;28;20048;-76
2022/01/10 11:25:21;;;;;;;17.15;8.95;;;5.70;95.00;;;;;;5054446;28;20040;-77
2022/01/10 11:27:48;;;;;;;9.63;8.23;;;5.70;95.30;;;;;;5053858;28;20060;-76
2022/01/10 11:30:34;;;;;;;10.82;8.18;;;5.80;95.50;;;;;;5054436;28;20485;-76
2022/01/10 11:33:15;;;;;;;13.10;9.43;;;5.90;95.00;;;;;;5054101;28;20466;-77
2022/01/10 11:35:47;;;;;;;23.55;9.82;;;5.90;94.40;;;;;;5054068;28;20040;-76
2022/01/10 11:38:39;;;;;;;15.45;10.07;;;5.90;94.30;;;;;;5054155;28;20040;-76
2022/01/10 11:41:11;;;;;;;10.77;6.97;;;5.80;94.70;;;;;;5054525;28;20041;-76
2022/01/10 11:43:56;;;;;;;14.32;8.40;;;5.80;94.00;;;;;;5054164;28;20037;-77
2022/01/10 11:46:25;;;;;;;9.82;8.68;;;5.80;93.80;;;;;;5054647;28;20041;-77
2022/01/10 11:49:03;;;;;;;12.93;9.57;;;5.90;94.20;;;;;;5053604;28;20037;-76
2022/01/10 11:51:41;;;;;;;13.57;9.13;;;6.10;94.30;;;;;;5054057;28;20037;-82
2022/01/10 11:54:09;;;;;;;12.40;9.43;;;6.10;94.00;;;;;;5054155;28;20044;-77
2022/01/10 11:56:37;;;;;;;12.60;9.07;;;6.10;94.30;;;;;;5053235;28;20036;-77
2022/01/10 11:59:14;;;;;;;10.18;7.38;;;6.10;93.60;;;;;;5053849;28;20416;-77
2022/01/10 12:02:03;;;;;;;12.68;8.00;;;6.30;93.20;;;;;;5053110;28;20044;-77
2022/01/10 12:04:35;;;;;;;8.27;5.93;;;6.40;92.40;;;;;;5053532;28;20475;-87
2022/01/10 12:07:04;;;;;;;20.23;10.15;;;6.40;92.00;;;;;;5053611;28;20037;-77
2022/01/10 12:09:31;;;;;;;19.77;7.93;;;6.40;91.80;;;;;;5052923;28;20458;-84
2022/01/10 12:11:59;;;;;;;8.45;7.18;;;6.30;92.20;;;;;;5053741;28;20035;-77
2022/01/10 12:14:26;;;;;;;9.75;7.97;;;6.30;92.70;;;;;;5054208;28;20049;-77
2022/01/10 12:16:53;;;;;;;16.38;7.70;;;6.30;92.80;;;;;;5053346;28;20478;-77
2022/01/10 12:19:20;;;;;;;15.32;8.10;;;6.20;93.00;;;;;;5053623;28;20051;-77
2022/01/10 12:21:47;;;;;;;11.10;7.47;;;6.20;92.60;;;;;;5053334;28;20036;-77
2022/01/10 12:24:14;;;;;;;14.57;8.38;;;6.20;92.60;;;;;;5053242;28;20505;-77
2022/01/10 12:26:41;;;;;;;14.05;7.45;;;6.20;92.60;;;;;;5053173;28;20040;-76
2022/01/10 12:29:10;;;;;;;13.63;7.65;;;6.20;92.10;;;;;;5034950;28;20045;-76
2022/01/10 12:31:38;;;;;;;10.57;5.70;;;6.10;91.10;;;;;;5052808;28;20388;-77
2022/01/10 12:34:07;;;;;;;10.57;5.75;;;6.10;90.90;;;;;;5053224;28;20045;-77
2022/01/10 12:36:35;;;;;;;12.40;6.32;;;6.20;90.90;;;;;;5052727;28;20454;-77
2022/01/10 12:39:27;;;;;;;19.90;7.10;;;6.20;90.90;;;;;;5053144;28;20044;-77
2022/01/10 12:41:56;;;;;;;9.52;5.97;;;6.20;91.10;;;;;;5052237;28;20033;-77
2022/01/10 12:44:24;;;;;;;13.88;6.28;;;6.30;90.80;;;;;;5053561;28;20048;-77
2022/01/10 12:46:50;;;;;;;14.38;7.05;;;6.20;90.70;;;;;;5051446;28;20497;-77
2022/01/10 12:49:17;;;;;;;6.78;5.53;;;6.20;91.10;;;;;;5053270;28;20029;-77
2022/01/10 12:51:50;;;;;;;14.48;6.60;;;6.20;91.10;;;;;;5052312;28;20040;-77
2022/01/10 12:54:18;;;;;;;16.48;6.47;;;6.20;91.20;;;;;;5053362;28;20104;-77